Time;durP1;ratioP1;P1;durP2;ratioP2;P2;SDS_P1;SDS_P2;PMS_P1;PMS_P2;Temp;Humidity;BMP_temperature;BMP_pressure;BME280_temperature;BME280_humidity;BME280_pressure;Samples;Min_cycle;Max_cycle;Signal;HPM_P1;HPM_P2
2022/04/05 00:00:17;;;;;;;3.63;2.17;;;;;;;;;;5016586;28;20186;-68
2022/04/05 00:02:42;;;;;;;3.80;2.00;;;;;;;;;;5028480;28;20214;-69
2022/04/05 00:05:08;;;;;;;4.40;2.23;;;;;;;;;;5026650;28;20241;-69
2022/04/05 00:07:33;;;;;;;4.13;2.10;;;;;;;;;;5020209;28;20248;-69
2022/04/05 00:09:59;;;;;;;6.60;2.10;;;;;;;;;;5028136;28;20189;-70
2022/04/05 00:12:24;;;;;;;6.03;2.40;;;;;;;;;;5023053;28;20192;-71
2022/04/05 00:14:50;;;;;;;4.93;2.37;;;;;;;;;;5023517;28;20178;-70
2022/04/05 00:17:16;;;;;;;6.57;2.37;;;;;;;;;;5028979;28;20201;-70
2022/04/05 00:19:41;;;;;;;4.30;1.80;;;;;;;;;;5029189;28;20265;-70
2022/04/05 00:22:07;;;;;;;5.35;2.25;;;;;;;;;;5022420;28;20207;-70
2022/04/05 00:24:32;;;;;;;5.63;2.30;;;;;;;;;;5024226;28;20190;-71
2022/04/05 00:26:57;;;;;;;8.47;2.53;;;;;;;;;;5020518;28;20266;-71
2022/04/05 00:29:23;;;;;;;7.75;2.70;;;;;;;;;;5012333;28;20669;-71
2022/04/05 00:31:50;;;;;;;6.37;2.50;;;;;;;;;;5019155;28;20331;-71
2022/04/05 00:34:16;;;;;;;5.87;2.73;;;;;;;;;;5017140;28;20179;-71
2022/04/05 00:36:42;;;;;;;4.17;2.20;;;;;;;;;;5023346;28;20668;-71
2022/04/05 00:39:07;;;;;;;5.47;2.75;;;;;;;;;;5025684;28;20194;-70
2022/04/05 00:41:33;;;;;;;4.13;2.67;;;;;;;;;;5025694;28;20202;-71
2022/04/05 00:43:58;;;;;;;6.27;2.30;;;;;;;;;;5024974;28;20182;-71
2022/04/05 00:46:23;;;;;;;6.60;2.00;;;;;;;;;;5023667;28;20190;-70
2022/04/05 00:48:58;;;;;;;5.07;1.90;;;;;;;;;;5026918;28;20284;-70
2022/04/05 00:51:24;;;;;;;2.50;1.67;;;;;;;;;;5020606;28;20174;-70
2022/04/05 00:54:13;;;;;;;7.70;2.03;;;;;;;;;;5027218;28;20277;-70
2022/04/05 00:56:40;;;;;;;5.07;1.87;;;;;;;;;;5004059;28;20201;-69
2022/04/05 00:59:07;;;;;;;3.87;1.80;;;;;;;;;;5015920;28;20745;-69
2022/04/05 01:01:33;;;;;;;3.57;1.77;;;;;;;;;;5018027;28;20312;-69
2022/04/05 01:03:58;;;;;;;5.23;1.90;;;;;;;;;;5028579;28;20220;-69
2022/04/05 01:06:37;;;;;;;5.07;1.60;;;;;;;;;;5018193;28;20191;-69
2022/04/05 01:09:03;;;;;;;2.60;1.57;;;;;;;;;;5019682;28;20292;-70
2022/04/05 01:11:30;;;;;;;3.30;1.37;;;;;;;;;;5018418;28;20245;-70
2022/04/05 01:13:55;;;;;;;4.40;2.03;;;;;;;;;;5023771;28;20232;-68
2022/04/05 01:16:21;;;;;;;3.37;1.40;;;;;;;;;;5027328;28;20174;-68
2022/04/05 01:18:47;;;;;;;2.03;1.33;;;;;;;;;;5027282;28;21777;-69
2022/04/05 01:21:14;;;;;;;4.17;1.70;;;;;;;;;;5020441;28;20205;-70
2022/04/05 01:24:01;;;;;;;4.37;1.80;;;;;;;;;;5029421;28;20182;-68
2022/04/05 01:26:26;;;;;;;4.80;1.40;;;;;;;;;;5026165;28;20179;-70
2022/04/05 01:28:52;;;;;;;5.07;1.50;;;;;;;;;;5019455;28;20236;-69
2022/04/05 01:31:18;;;;;;;5.00;1.63;;;;;;;;;;5026324;28;20214;-69
2022/04/05 01:33:43;;;;;;;4.57;1.40;;;;;;;;;;5026533;28;20478;-68
2022/04/05 01:36:20;;;;;;;3.87;1.20;;;;;;;;;;5025995;28;20179;-68
2022/04/05 01:38:45;;;;;;;6.63;1.50;;;;;;;;;;5020226;28;20214;-68
2022/04/05 01:41:11;;;;;;;6.30;1.83;;;;;;;;;;5028225;28;20220;-69
2022/04/05 01:43:36;;;;;;;5.17;1.70;;;;;;;;;;5019823;28;20278;-67
2022/04/05 01:46:01;;;;;;;1.90;1.20;;;;;;;;;;5021042;28;20261;-68
2022/04/05 01:48:26;;;;;;;1.90;1.30;;;;;;;;;;5014874;28;20218;-67
2022/04/05 01:50:52;;;;;;;5.23;1.43;;;;;;;;;;5020544;28;20600;-68
2022/04/05 01:53:17;;;;;;;4.67;1.70;;;;;;;;;;5025568;28;20187;-69
2022/04/05 01:55:42;;;;;;;2.60;1.73;;;;;;;;;;5021058;28;20178;-68
2022/04/05 01:58:08;;;;;;;3.80;1.90;;;;;;;;;;5018036;28;20241;-68
2022/04/05 02:00:33;;;;;;;5.30;1.90;;;;;;;;;;5025285;28;20177;-68
2022/04/05 02:02:58;;;;;;;5.00;1.60;;;;;;;;;;5018747;28;20289;-68
2022/04/05 02:05:24;;;;;;;2.20;1.47;;;;;;;;;;5016339;28;20618;-68
2022/04/05 02:07:49;;;;;;;3.50;1.73;;;;;;;;;;5024419;28;20724;-69
2022/04/05 02:10:14;;;;;;;7.90;1.60;;;;;;;;;;5028440;28;20277;-68
2022/04/05 02:12:40;;;;;;;4.67;1.83;;;;;;;;;;5027977;28;20662;-68
2022/04/05 02:15:07;;;;;;;5.40;1.97;;;;;;;;;;5026721;28;20254;-69
2022/04/05 02:17:32;;;;;;;3.63;1.60;;;;;;;;;;5028935;28;20189;-69
2022/04/05 02:19:58;;;;;;;2.53;1.80;;;;;;;;;;5025398;28;20170;-68
2022/04/05 02:22:23;;;;;;;7.13;1.90;;;;;;;;;;5023294;28;20199;-69
2022/04/05 02:24:49;;;;;;;5.20;1.73;;;;;;;;;;5025509;28;20539;-68
2022/04/05 02:27:14;;;;;;;3.80;2.07;;;;;;;;;;5027517;28;20177;-68
2022/04/05 02:29:40;;;;;;;4.60;1.50;;;;;;;;;;5027393;28;20704;-68
2022/04/05 02:32:05;;;;;;;5.90;2.13;;;;;;;;;;5021814;28;20209;-68
2022/04/05 02:34:30;;;;;;;7.30;2.43;;;;;;;;;;5022214;28;20182;-69
2022/04/05 02:36:56;;;;;;;3.90;2.20;;;;;;;;;;5025365;28;20182;-68
2022/04/05 02:39:21;;;;;;;2.77;2.10;;;;;;;;;;5024481;28;20277;-68
2022/04/05 02:41:47;;;;;;;3.85;2.22;;;;;;;;;;5025009;28;20746;-68
2022/04/05 02:44:12;;;;;;;4.23;2.17;;;;;;;;;;5024818;28;20517;-67
2022/04/05 02:46:37;;;;;;;3.97;2.60;;;;;;;;;;5023911;28;20689;-67
2022/04/05 02:49:03;;;;;;;4.60;2.27;;;;;;;;;;5021533;28;20217;-68
2022/04/05 02:51:29;;;;;;;4.87;2.57;;;;;;;;;;5028066;28;20174;-68
2022/04/05 02:53:54;;;;;;;6.28;2.85;;;;;;;;;;5014388;28;20182;-68
2022/04/05 02:56:19;;;;;;;8.52;3.25;;;;;;;;;;5020427;28;20558;-69
2022/04/05 02:58:47;;;;;;;9.27;3.07;;;;;;;;;;5021071;28;20174;-69
2022/04/05 03:01:14;;;;;;;7.63;3.00;;;;;;;;;;5015819;28;20178;-68
2022/04/05 03:03:39;;;;;;;5.53;2.50;;;;;;;;;;5021586;28;20273;-69
2022/04/05 03:06:05;;;;;;;5.90;3.30;;;;;;;;;;5020688;28;20649;-69
2022/04/05 03:08:30;;;;;;;6.10;2.43;;;;;;;;;;5019457;28;20718;-68
2022/04/05 03:10:55;;;;;;;7.73;3.40;;;;;;;;;;5015911;28;20642;-69
2022/04/05 03:13:21;;;;;;;7.63;3.20;;;;;;;;;;5013873;28;20181;-68
2022/04/05 03:15:46;;;;;;;5.10;2.87;;;;;;;;;;5024410;28;20174;-68
2022/04/05 03:18:12;;;;;;;7.20;2.80;;;;;;;;;;5025298;28;20257;-69
2022/04/05 03:20:37;;;;;;;6.83;3.00;;;;;;;;;;5018244;28;20179;-69
2022/04/05 03:23:04;;;;;;;6.30;3.10;;;;;;;;;;5025426;28;20800;-68
2022/04/05 03:25:30;;;;;;;5.90;3.10;;;;;;;;;;5024230;28;20178;-68
2022/04/05 03:27:55;;;;;;;5.83;3.40;;;;;;;;;;5018080;28;20189;-68
2022/04/05 03:30:22;;;;;;;7.63;3.10;;;;;;;;;;5017993;28;20235;-68
2022/04/05 03:32:48;;;;;;;5.17;3.10;;;;;;;;;;5021022;28;20175;-68
2022/04/05 03:35:14;;;;;;;6.93;2.80;;;;;;;;;;5025255;28;20261;-68
2022/04/05 03:37:39;;;;;;;7.83;3.10;;;;;;;;;;5027549;28;20189;-68
2022/04/05 03:40:06;;;;;;;7.53;3.13;;;;;;;;;;5013290;28;20206;-68
2022/04/05 03:42:31;;;;;;;6.27;2.67;;;;;;;;;;5023904;28;20209;-69
2022/04/05 03:44:57;;;;;;;6.73;3.07;;;;;;;;;;5022657;28;20178;-68
2022/04/05 03:47:23;;;;;;;8.20;2.83;;;;;;;;;;5024100;28;20297;-69
2022/04/05 03:49:48;;;;;;;6.43;3.33;;;;;;;;;;5020151;28;20641;-68
2022/04/05 03:52:14;;;;;;;6.50;3.27;;;;;;;;;;5025140;28;20527;-68
2022/04/05 03:54:39;;;;;;;6.93;3.40;;;;;;;;;;5017357;28;20476;-68
2022/04/05 03:57:05;;;;;;;6.10;3.50;;;;;;;;;;5024244;28;20670;-68
2022/04/05 03:59:30;;;;;;;8.00;2.93;;;;;;;;;;5022408;28;20208;-69
2022/04/05 04:01:55;;;;;;;5.67;3.47;;;;;;;;;;5019866;28;20202;-69
2022/04/05 04:04:21;;;;;;;7.37;3.90;;;;;;;;;;5021736;28;20174;-68
2022/04/05 04:06:46;;;;;;;8.23;3.60;;;;;;;;;;5022721;28;20179;-68
2022/04/05 04:09:12;;;;;;;6.33;3.47;;;;;;;;;;5014547;28;20230;-68
2022/04/05 04:11:40;;;;;;;10.97;4.03;;;;;;;;;;5025294;28;20186;-68
2022/04/05 04:14:06;;;;;;;5.78;3.90;;;;;;;;;;5018257;28;20182;-69
2022/04/05 04:16:32;;;;;;;7.88;3.75;;;;;;;;;;5021734;28;20184;-68
2022/04/05 04:18:57;;;;;;;6.03;4.20;;;;;;;;;;5025175;28;20186;-68
2022/04/05 04:21:22;;;;;;;6.77;3.70;;;;;;;;;;5017916;28;20206;-68
2022/04/05 04:23:48;;;;;;;7.97;4.17;;;;;;;;;;5023953;28;20178;-69
2022/04/05 04:26:13;;;;;;;10.23;4.13;;;;;;;;;;5025279;28;20201;-69
2022/04/05 04:28:38;;;;;;;8.30;4.50;;;;;;;;;;5013756;28;20273;-69
2022/04/05 04:31:04;;;;;;;5.53;3.93;;;;;;;;;;5027871;28;20257;-68
2022/04/05 04:33:29;;;;;;;13.93;4.60;;;;;;;;;;5026643;28;20174;-69
2022/04/05 04:35:54;;;;;;;12.10;4.87;;;;;;;;;;5029940;28;20186;-68
2022/04/05 04:38:20;;;;;;;11.97;4.20;;;;;;;;;;5013485;28;20669;-68
2022/04/05 04:40:46;;;;;;;8.13;4.73;;;;;;;;;;5012366;28;20655;-68
2022/04/05 04:43:14;;;;;;;7.87;4.53;;;;;;;;;;5023010;28;20210;-68
2022/04/05 04:45:40;;;;;;;7.72;3.90;;;;;;;;;;5018851;28;20189;-68
2022/04/05 04:48:05;;;;;;;9.37;4.50;;;;;;;;;;5023149;28;20186;-68
2022/04/05 04:50:30;;;;;;;8.73;4.43;;;;;;;;;;5016655;28;20174;-68
2022/04/05 04:52:56;;;;;;;9.37;4.47;;;;;;;;;;5021476;28;20193;-68
2022/04/05 04:55:22;;;;;;;10.77;5.10;;;;;;;;;;5020282;28;20182;-68
2022/04/05 04:57:47;;;;;;;8.55;4.65;;;;;;;;;;5021822;28;20187;-69
2022/04/05 05:00:13;;;;;;;9.25;4.65;;;;;;;;;;5023820;28;20174;-69
2022/04/05 05:02:45;;;;;;;8.90;4.80;;;;;;;;;;5018441;28;20206;-68
2022/04/05 05:05:12;;;;;;;7.67;4.50;;;;;;;;;;5022915;28;20248;-69
2022/04/05 05:07:37;;;;;;;12.77;4.77;;;;;;;;;;5027432;28;20190;-69
2022/04/05 05:10:03;;;;;;;9.20;4.87;;;;;;;;;;5026179;28;20603;-70
2022/04/05 05:12:28;;;;;;;10.80;5.87;;;;;;;;;;5024859;28;20197;-70
2022/04/05 05:14:53;;;;;;;8.45;5.00;;;;;;;;;;5026547;28;20558;-71
2022/04/05 05:17:19;;;;;;;10.45;4.85;;;;;;;;;;5018853;28;20192;-71
2022/04/05 05:19:44;;;;;;;11.43;4.95;;;;;;;;;;5028193;28;20186;-71
2022/04/05 05:22:09;;;;;;;8.93;4.90;;;;;;;;;;5026169;28;20272;-71
2022/04/05 05:24:35;;;;;;;8.77;4.90;;;;;;;;;;5017063;28;20210;-71
2022/04/05 05:27:01;;;;;;;10.77;4.80;;;;;;;;;;5024551;28;20630;-71
2022/04/05 05:29:26;;;;;;;9.63;5.60;;;;;;;;;;5023234;28;20225;-70
2022/04/05 05:31:51;;;;;;;10.37;5.60;;;;;;;;;;5021704;28;20190;-70
2022/04/05 05:34:22;;;;;;;11.85;5.25;;;;;;;;;;5017196;28;20187;-71
2022/04/05 05:36:48;;;;;;;9.93;5.03;;;;;;;;;;5015877;28;20189;-70
2022/04/05 05:39:13;;;;;;;9.43;5.10;;;;;;;;;;5021906;28;20186;-70
2022/04/05 05:41:38;;;;;;;12.67;5.30;;;;;;;;;;5028022;28;20198;-70
2022/04/05 05:44:04;;;;;;;10.70;5.30;;;;;;;;;;5026124;28;20265;-70
2022/04/05 05:46:29;;;;;;;10.00;4.70;;;;;;;;;;5021565;28;20179;-71
2022/04/05 05:48:55;;;;;;;8.77;5.07;;;;;;;;;;5025020;28;20194;-70
2022/04/05 05:51:20;;;;;;;10.88;5.15;;;;;;;;;;5026831;28;20193;-70
2022/04/05 05:53:45;;;;;;;9.30;4.75;;;;;;;;;;5018062;28;20181;-72
2022/04/05 05:56:11;;;;;;;9.55;4.75;;;;;;;;;;5017423;28;20223;-71
2022/04/05 05:58:36;;;;;;;6.85;4.20;;;;;;;;;;5026421;28;20316;-72
2022/04/05 06:01:01;;;;;;;8.63;5.13;;;;;;;;;;5027280;28;20182;-72
2022/04/05 06:03:27;;;;;;;10.40;4.43;;;;;;;;;;5026543;28;20291;-72
2022/04/05 06:05:52;;;;;;;9.63;4.50;;;;;;;;;;5027111;28;20232;-73
2022/04/05 06:08:17;;;;;;;7.73;4.10;;;;;;;;;;5021174;28;20310;-73
2022/04/05 06:10:43;;;;;;;7.70;4.00;;;;;;;;;;5026945;28;20190;-73
2022/04/05 06:13:08;;;;;;;8.00;3.60;;;;;;;;;;5018482;28;20679;-73
2022/04/05 06:15:34;;;;;;;7.03;3.83;;;;;;;;;;5025733;28;20700;-74
2022/04/05 06:17:59;;;;;;;7.87;4.17;;;;;;;;;;5026279;28;20193;-74
2022/04/05 06:20:26;;;;;;;8.60;4.43;;;;;;;;;;5026007;28;20189;-73
2022/04/05 06:22:59;;;;;;;10.03;4.67;;;;;;;;;;5026140;28;20306;-74
2022/04/05 06:25:28;;;;;;;7.75;4.10;;;;;;;;;;5025931;28;20741;-73
2022/04/05 06:27:57;;;;;;;8.32;3.97;;;;;;;;;;5025792;28;20322;-72
2022/04/05 06:30:23;;;;;;;7.88;3.60;;;;;;;;;;5025460;28;20178;-73
2022/04/05 06:32:49;;;;;;;7.47;4.18;;;;;;;;;;5027245;28;20178;-72
2022/04/05 06:35:15;;;;;;;8.10;4.13;;;;;;;;;;5025266;28;20183;-72
2022/04/05 06:37:44;;;;;;;7.68;4.63;;;;;;;;;;5024809;28;20220;-72
2022/04/05 06:40:11;;;;;;;5.75;4.18;;;;;;;;;;5021986;28;20178;-72
2022/04/05 06:42:41;;;;;;;7.78;4.88;;;;;;;;;;5021866;28;20221;-71
2022/04/05 06:45:14;;;;;;;7.85;4.80;;;;;;;;;;5022346;28;20186;-71
2022/04/05 06:47:40;;;;;;;8.15;4.57;;;;;;;;;;5023183;28;20189;-71
2022/04/05 06:50:07;;;;;;;8.23;4.60;;;;;;;;;;5023408;28;20178;-70
2022/04/05 06:52:36;;;;;;;8.40;4.45;;;;;;;;;;5022828;28;20191;-70
2022/04/05 06:55:01;;;;;;;11.45;4.55;;;;;;;;;;5022680;28;20178;-70
2022/04/05 06:57:27;;;;;;;7.68;3.72;;;;;;;;;;5027057;28;20768;-70
2022/04/05 06:59:52;;;;;;;9.13;4.75;;;;;;;;;;5024686;28;20186;-70
2022/04/05 07:02:17;;;;;;;10.00;4.90;;;;;;;;;;5023708;28;20210;-70
2022/04/05 07:04:43;;;;;;;10.30;4.55;;;;;;;;;;5022641;28;20190;-70
2022/04/05 07:07:08;;;;;;;9.38;5.05;;;;;;;;;;5024231;28;20182;-70
2022/04/05 07:09:33;;;;;;;8.68;5.05;;;;;;;;;;5020794;28;20284;-70
2022/04/05 07:11:59;;;;;;;9.43;4.60;;;;;;;;;;5007245;28;20202;-70
2022/04/05 07:14:24;;;;;;;6.95;4.22;;;;;;;;;;5020418;28;20761;-70
2022/04/05 07:16:49;;;;;;;7.47;4.68;;;;;;;;;;5017131;28;20190;-70
2022/04/05 07:19:15;;;;;;;7.10;4.50;;;;;;;;;;5009866;28;20193;-70
2022/04/05 07:21:40;;;;;;;6.47;4.40;;;;;;;;;;5019998;28;20198;-69
2022/04/05 07:24:06;;;;;;;8.88;4.35;;;;;;;;;;5027287;28;20186;-69
2022/04/05 07:26:31;;;;;;;8.52;4.47;;;;;;;;;;5024547;28;20340;-69
2022/04/05 07:28:56;;;;;;;6.45;4.20;;;;;;;;;;5022739;28;20186;-69
2022/04/05 07:31:22;;;;;;;8.88;4.38;;;;;;;;;;5025088;28;20557;-69
2022/04/05 07:33:47;;;;;;;6.82;4.07;;;;;;;;;;5019830;28;20535;-69
2022/04/05 07:36:12;;;;;;;8.60;4.43;;;;;;;;;;5023824;28;20189;-69
2022/04/05 07:38:38;;;;;;;6.63;4.30;;;;;;;;;;5020232;28;20193;-69
2022/04/05 07:41:03;;;;;;;6.78;4.38;;;;;;;;;;5020598;28;20185;-69
2022/04/05 07:43:28;;;;;;;6.10;3.93;;;;;;;;;;5015357;28;20209;-69
2022/04/05 07:45:56;;;;;;;6.55;4.00;;;;;;;;;;5022470;28;20241;-69
2022/04/05 07:48:25;;;;;;;5.80;3.47;;;;;;;;;;5022125;28;20206;-69
2022/04/05 07:50:51;;;;;;;6.15;4.05;;;;;;;;;;5023107;28;20460;-69
2022/04/05 07:53:17;;;;;;;7.28;4.43;;;;;;;;;;5024145;28;20523;-69
2022/04/05 07:55:43;;;;;;;5.15;4.10;;;;;;;;;;5012860;28;20240;-68
2022/04/05 07:58:08;;;;;;;7.38;4.13;;;;;;;;;;5025324;28;20523;-68
2022/04/05 08:00:34;;;;;;;6.60;4.32;;;;;;;;;;5022720;28;20247;-70
2022/04/05 08:02:59;;;;;;;6.65;4.47;;;;;;;;;;5025332;28;20206;-68
2022/04/05 08:05:25;;;;;;;7.35;4.05;;;;;;;;;;5025751;28;20265;-69
2022/04/05 08:07:51;;;;;;;6.95;4.30;;;;;;;;;;5023022;28;20190;-68
2022/04/05 08:10:16;;;;;;;5.82;4.00;;;;;;;;;;5029030;28;20341;-68
2022/04/05 08:12:44;;;;;;;7.40;4.03;;;;;;;;;;5027123;28;20721;-68
2022/04/05 08:15:11;;;;;;;5.68;3.10;;;;;;;;;;5028320;28;20181;-68
2022/04/05 08:17:36;;;;;;;6.22;3.83;;;;;;;;;;5030760;28;20197;-68
2022/04/05 08:20:03;;;;;;;5.55;3.70;;;;;;;;;;5028928;28;20178;-68
2022/04/05 08:22:28;;;;;;;6.80;3.17;;;;;;;;;;5025811;28;20206;-68
2022/04/05 08:24:54;;;;;;;8.05;3.53;;;;;;;;;;5028135;28;20557;-69
2022/04/05 08:27:19;;;;;;;7.22;3.15;;;;;;;;;;5029896;28;20664;-69
2022/04/05 08:29:44;;;;;;;5.40;3.88;;;;;;;;;;5027445;28;20225;-69
2022/04/05 08:32:09;;;;;;;4.70;3.35;;;;;;;;;;5023749;28;20225;-69
2022/04/05 08:34:41;;;;;;;5.30;3.25;;;;;;;;;;5027045;28;20181;-69
2022/04/05 08:37:08;;;;;;;7.53;3.42;;;;;;;;;;5027265;28;20186;-69
2022/04/05 08:39:34;;;;;;;4.38;3.42;;;;;;;;;;5029452;28;20190;-69
2022/04/05 08:41:59;;;;;;;6.45;3.85;;;;;;;;;;5027899;28;20708;-70
2022/04/05 08:44:25;;;;;;;6.45;3.60;;;;;;;;;;5028707;28;20180;-69
2022/04/05 08:46:51;;;;;;;5.75;4.00;;;;;;;;;;5026080;28;20182;-69
2022/04/05 08:49:17;;;;;;;6.20;3.55;;;;;;;;;;5027560;28;20697;-69
2022/04/05 08:51:42;;;;;;;6.72;3.95;;;;;;;;;;5024762;28;20361;-69
2022/04/05 08:54:08;;;;;;;9.60;4.55;;;;;;;;;;5021770;28;20277;-68
2022/04/05 08:56:34;;;;;;;7.78;4.82;;;;;;;;;;5025941;28;20191;-68
2022/04/05 08:58:59;;;;;;;8.75;5.03;;;;;;;;;;5027879;28;20181;-68
2022/04/05 09:01:29;;;;;;;6.97;5.07;;;;;;;;;;5027074;28;20554;-68
2022/04/05 09:03:58;;;;;;;9.10;5.60;;;;;;;;;;5024020;28;20231;-69
2022/04/05 09:06:31;;;;;;;8.52;4.88;;;;;;;;;;5028280;28;20687;-70
2022/04/05 09:09:10;;;;;;;9.77;5.87;;;;;;;;;;5027600;28;20222;-71
2022/04/05 09:11:36;;;;;;;7.90;5.47;;;;;;;;;;5024476;28;20281;-70
2022/04/05 09:14:03;;;;;;;7.00;5.22;;;;;;;;;;5026312;28;20299;-70
2022/04/05 09:16:31;;;;;;;7.60;5.35;;;;;;;;;;5025559;28;20577;-70
2022/04/05 09:18:58;;;;;;;9.52;5.25;;;;;;;;;;5023846;28;20183;-71
2022/04/05 09:21:24;;;;;;;9.25;5.20;;;;;;;;;;5025016;28;20213;-69
2022/04/05 09:23:52;;;;;;;6.35;5.05;;;;;;;;;;5024597;28;20213;-69
2022/04/05 09:26:19;;;;;;;8.40;5.28;;;;;;;;;;5025990;28;20582;-71
2022/04/05 09:28:46;;;;;;;8.80;5.05;;;;;;;;;;5026376;28;20182;-70
2022/04/05 09:31:15;;;;;;;7.82;5.30;;;;;;;;;;5025912;28;20202;-69
2022/04/05 09:34:01;;;;;;;11.18;5.35;;;;;;;;;;5026950;28;20186;-69
2022/04/05 09:36:41;;;;;;;9.07;5.88;;;;;;;;;;5024857;28;20701;-69
2022/04/05 09:39:11;;;;;;;10.77;6.75;;;;;;;;;;5026701;28;20173;-69
2022/04/05 09:41:37;;;;;;;9.95;6.18;;;;;;;;;;5026334;28;20301;-69
2022/04/05 09:44:02;;;;;;;11.90;6.50;;;;;;;;;;5026200;28;20277;-69
2022/04/05 09:46:29;;;;;;;11.50;6.60;;;;;;;;;;5024885;28;20554;-68
2022/04/05 09:49:03;;;;;;;13.05;7.40;;;;;;;;;;5025429;28;20198;-68
2022/04/05 09:51:35;;;;;;;14.25;6.78;;;;;;;;;;5026206;28;20178;-69
2022/04/05 09:54:00;;;;;;;14.55;7.60;;;;;;;;;;5023217;28;20186;-69
2022/04/05 09:56:30;;;;;;;11.50;7.05;;;;;;;;;;5025798;28;20186;-68
2022/04/05 09:59:03;;;;;;;12.80;6.95;;;;;;;;;;5025993;28;20198;-69
2022/04/05 10:01:29;;;;;;;13.38;7.63;;;;;;;;;;5024805;28;20197;-69
2022/04/05 10:04:05;;;;;;;13.52;6.72;;;;;;;;;;5025920;28;20186;-68
2022/04/05 10:06:32;;;;;;;12.07;6.30;;;;;;;;;;5025866;28;20190;-68
2022/04/05 10:08:59;;;;;;;12.88;6.78;;;;;;;;;;5025896;28;20222;-68
2022/04/05 10:11:27;;;;;;;14.10;6.72;;;;;;;;;;5025027;28;20178;-68
2022/04/05 10:13:54;;;;;;;14.15;7.25;;;;;;;;;;5022314;28;20186;-68
2022/04/05 10:16:22;;;;;;;10.82;6.70;;;;;;;;;;5025743;28;20589;-68
2022/04/05 10:18:48;;;;;;;12.63;6.43;;;;;;;;;;5027774;28;20519;-69
2022/04/05 10:21:15;;;;;;;12.43;6.40;;;;;;;;;;5026003;28;20175;-69
2022/04/05 10:23:43;;;;;;;13.80;5.97;;;;;;;;;;5020586;28;20561;-69
2022/04/05 10:26:15;;;;;;;14.63;6.07;;;;;;;;;;5023519;28;20179;-69
2022/04/05 10:28:43;;;;;;;13.40;6.05;;;;;;;;;;5022534;28;20571;-68
2022/04/05 10:31:28;;;;;;;12.63;5.88;;;;;;;;;;5024104;28;20214;-69
2022/04/05 10:34:24;;;;;;;12.85;6.00;;;;;;;;;;5023529;28;20224;-68
2022/04/05 10:37:09;;;;;;;8.45;5.07;;;;;;;;;;5024584;28;20190;-69
2022/04/05 10:39:36;;;;;;;13.80;6.10;;;;;;;;;;5025565;28;20181;-68
2022/04/05 10:42:08;;;;;;;15.00;6.18;;;;;;;;;;5024501;28;20259;-68
2022/04/05 10:44:33;;;;;;;11.75;6.25;;;;;;;;;;5027381;28;20276;-68
2022/04/05 10:47:04;;;;;;;13.55;6.60;;;;;;;;;;5026520;28;20288;-71
2022/04/05 10:49:44;;;;;;;16.08;5.95;;;;;;;;;;5027158;28;20238;-68
2022/04/05 10:52:11;;;;;;;14.65;5.82;;;;;;;;;;5025622;28;20541;-68
2022/04/05 10:54:43;;;;;;;14.07;5.47;;;;;;;;;;5016655;28;20292;-70
2022/04/05 10:57:34;;;;;;;10.52;5.28;;;;;;;;;;5017874;28;20490;-68
2022/04/05 11:00:12;;;;;;;11.00;5.22;;;;;;;;;;5009349;28;20547;-69
2022/04/05 11:02:41;;;;;;;9.05;5.65;;;;;;;;;;5015081;28;20287;-69
2022/04/05 11:05:13;;;;;;;11.38;5.35;;;;;;;;;;5025487;28;20723;-69
2022/04/05 11:07:53;;;;;;;10.77;4.85;;;;;;;;;;5013990;28;20678;-69
2022/04/05 11:10:20;;;;;;;13.98;5.30;;;;;;;;;;5024491;28;20216;-68
2022/04/05 11:12:46;;;;;;;9.00;4.78;;;;;;;;;;5021150;28;20182;-69
2022/04/05 11:15:14;;;;;;;9.48;5.50;;;;;;;;;;5024200;28;20187;-69
2022/04/05 11:17:42;;;;;;;9.13;4.50;;;;;;;;;;5012558;28;20210;-69
2022/04/05 11:20:09;;;;;;;9.60;4.00;;;;;;;;;;5026759;28;20182;-68
2022/04/05 11:22:38;;;;;;;9.52;4.05;;;;;;;;;;5020890;28;20205;-69
2022/04/05 11:25:09;;;;;;;6.22;3.63;;;;;;;;;;5027304;28;20174;-69
2022/04/05 11:27:45;;;;;;;10.43;4.50;;;;;;;;;;5025973;28;20292;-69
2022/04/05 11:30:22;;;;;;;10.05;4.13;;;;;;;;;;5009887;28;20186;-68
2022/04/05 11:33:08;;;;;;;8.38;4.28;;;;;;;;;;5012388;28;20182;-69
2022/04/05 11:35:57;;;;;;;7.72;4.18;;;;;;;;;;5014809;28;20522;-69
2022/04/05 11:38:25;;;;;;;9.77;3.83;;;;;;;;;;5018589;28;20607;-69
2022/04/05 11:41:00;;;;;;;8.68;3.80;;;;;;;;;;5026437;28;20181;-69
2022/04/05 11:43:36;;;;;;;5.57;3.90;;;;;;;;;;5027059;28;20682;-69
2022/04/05 11:46:10;;;;;;;7.85;3.70;;;;;;;;;;5023269;28;20217;-69
2022/04/05 11:48:40;;;;;;;5.35;3.75;;;;;;;;;;5026306;28;20261;-68
2022/04/05 11:51:07;;;;;;;6.72;4.10;;;;;;;;;;5025924;28;20580;-68
2022/04/05 11:53:32;;;;;;;7.07;4.05;;;;;;;;;;5025318;28;20186;-68
2022/04/05 11:56:12;;;;;;;6.30;4.07;;;;;;;;;;5026150;28;20248;-68
2022/04/05 11:58:42;;;;;;;6.72;3.67;;;;;;;;;;5025195;28;20181;-68
2022/04/05 12:01:10;;;;;;;6.43;3.45;;;;;;;;;;5026333;28;20684;-69
2022/04/05 12:04:00;;;;;;;5.43;3.90;;;;;;;;;;5023600;28;20241;-69
2022/04/05 12:06:29;;;;;;;5.95;3.92;;;;;;;;;;5019475;28;20281;-69
2022/04/05 12:09:00;;;;;;;8.18;4.40;;;;;;;;;;5026339;28;20226;-69
2022/04/05 12:11:27;;;;;;;6.80;3.88;;;;;;;;;;5025407;28;20188;-69
2022/04/05 12:14:10;;;;;;;8.35;4.13;;;;;;;;;;5024924;28;20182;-69
2022/04/05 12:16:49;;;;;;;8.40;4.18;;;;;;;;;;5025584;28;20264;-69
2022/04/05 12:19:19;;;;;;;9.38;4.85;;;;;;;;;;5026165;28;20231;-69
2022/04/05 12:21:45;;;;;;;9.30;4.63;;;;;;;;;;5022781;28;20260;-69
2022/04/05 12:24:12;;;;;;;9.48;4.53;;;;;;;;;;5021204;28;20178;-68
2022/04/05 12:26:38;;;;;;;8.93;4.70;;;;;;;;;;5023464;28;20625;-68
2022/04/05 12:29:03;;;;;;;10.35;5.00;;;;;;;;;;5024503;28;20280;-69
2022/04/05 12:31:31;;;;;;;8.77;4.93;;;;;;;;;;5023516;28;20220;-69
2022/04/05 12:34:05;;;;;;;7.68;5.00;;;;;;;;;;5024206;28;20182;-69
2022/04/05 12:36:53;;;;;;;10.20;5.28;;;;;;;;;;5022244;28;20231;-69
2022/04/05 12:39:21;;;;;;;12.95;5.90;;;;;;;;;;5023648;28;20755;-69
2022/04/05 12:41:49;;;;;;;10.57;5.75;;;;;;;;;;5025233;28;20187;-69
2022/04/05 12:44:17;;;;;;;10.32;5.78;;;;;;;;;;5023169;28;20625;-69
2022/04/05 12:46:48;;;;;;;8.23;5.07;;;;;;;;;;5022358;28;20265;-69
2022/04/05 12:49:20;;;;;;;8.85;4.50;;;;;;;;;;5028231;28;20190;-69
2022/04/05 12:51:47;;;;;;;7.63;4.60;;;;;;;;;;5028986;28;20183;-68
2022/04/05 12:54:33;;;;;;;6.75;5.07;;;;;;;;;;5028456;28;20492;-69
2022/04/05 12:57:29;;;;;;;8.77;4.97;;;;;;;;;;5026616;28;20186;-69
2022/04/05 13:00:11;;;;;;;8.30;4.68;;;;;;;;;;5028104;28;20213;-69
2022/04/05 13:02:42;;;;;;;8.70;4.85;;;;;;;;;;5025269;28;20202;-68
2022/04/05 13:08:06;;;;;;;8.48;4.75;;;;;;;;;;5026715;28;20343;-68
2022/04/05 13:10:37;;;;;;;8.73;4.75;;;;;;;;;;5027842;28;20630;-68
2022/04/05 13:13:33;;;;;;;11.13;5.05;;;;;;;;;;5026805;28;20178;-68
2022/04/05 13:16:01;;;;;;;8.43;5.63;;;;;;;;;;5023504;28;20212;-68
2022/04/05 13:18:42;;;;;;;9.27;6.30;;;;;;;;;;5026439;28;20190;-68
2022/04/05 13:21:16;;;;;;;7.20;6.50;;;;;;;;;;5024658;28;20203;-68
2022/04/05 13:23:42;;;;;;;11.60;7.38;;;;;;;;;;5024139;28;20304;-68
2022/04/05 13:26:25;;;;;;;10.88;8.18;;;;;;;;;;5023361;28;20695;-68
2022/04/05 13:29:27;;;;;;;14.43;8.45;;;;;;;;;;5023854;28;20633;-69
2022/04/05 13:32:04;;;;;;;9.23;7.60;;;;;;;;;;5028838;28;20209;-68
2022/04/05 13:34:37;;;;;;;9.68;8.40;;;;;;;;;;5025401;28;20580;-68
2022/04/05 13:37:03;;;;;;;12.10;8.25;;;;;;;;;;5026359;28;20174;-68
2022/04/05 13:39:33;;;;;;;14.55;8.10;;;;;;;;;;5026750;28;20190;-68
2022/04/05 13:42:00;;;;;;;7.90;6.68;;;;;;;;;;5026588;28;20616;-68
2022/04/05 13:44:26;;;;;;;11.13;7.25;;;;;;;;;;5025882;28;20178;-68
2022/04/05 13:46:52;;;;;;;12.40;7.40;;;;;;;;;;5025554;28;20194;-68
2022/04/05 13:49:17;;;;;;;11.27;6.80;;;;;;;;;;5026416;28;20481;-68
2022/04/05 13:51:45;;;;;;;9.80;6.80;;;;;;;;;;5026389;28;20188;-68
2022/04/05 13:54:11;;;;;;;11.68;7.05;;;;;;;;;;5024622;28;20273;-68
2022/04/05 13:56:41;;;;;;;9.98;6.90;;;;;;;;;;5022319;28;20277;-68
2022/04/05 13:59:07;;;;;;;12.85;7.55;;;;;;;;;;5022754;28;20186;-68
2022/04/05 14:01:32;;;;;;;10.38;7.10;;;;;;;;;;5025454;28;20791;-68
2022/04/05 14:03:57;;;;;;;11.15;5.95;;;;;;;;;;5024656;28;20186;-69
2022/04/05 14:06:23;;;;;;;8.23;6.68;;;;;;;;;;5025957;28;20201;-68
2022/04/05 14:08:49;;;;;;;10.70;5.88;;;;;;;;;;5026052;28;20224;-68
2022/04/05 14:11:15;;;;;;;8.45;5.57;;;;;;;;;;5025863;28;20646;-69
2022/04/05 14:13:41;;;;;;;12.23;5.82;;;;;;;;;;5024149;28;20668;-68
2022/04/05 14:16:08;;;;;;;7.85;5.78;;;;;;;;;;5025710;28;20396;-68
2022/04/05 14:18:34;;;;;;;12.27;5.78;;;;;;;;;;5024916;28;20308;-68
2022/04/05 14:20:59;;;;;;;8.80;6.28;;;;;;;;;;5026266;28;20263;-68
2022/04/05 14:23:25;;;;;;;10.63;6.60;;;;;;;;;;5025557;28;20198;-69
2022/04/05 14:25:50;;;;;;;10.18;5.75;;;;;;;;;;5025223;28;20232;-68
2022/04/05 14:28:16;;;;;;;11.90;6.35;;;;;;;;;;5022283;28;20189;-68
2022/04/05 14:30:41;;;;;;;9.20;5.95;;;;;;;;;;5026048;28;20193;-67
2022/04/05 14:33:07;;;;;;;9.02;6.03;;;;;;;;;;5023194;28;20188;-68
2022/04/05 14:35:33;;;;;;;8.20;5.47;;;;;;;;;;5026858;28;20252;-67
2022/04/05 14:37:58;;;;;;;10.85;5.80;;;;;;;;;;5025000;28;20277;-67
2022/04/05 14:40:24;;;;;;;8.45;5.05;;;;;;;;;;5026969;28;20529;-68
2022/04/05 14:42:51;;;;;;;6.93;4.82;;;;;;;;;;5025258;28;20208;-67
2022/04/05 14:45:16;;;;;;;7.97;5.07;;;;;;;;;;5026098;28;20178;-68
2022/04/05 14:47:42;;;;;;;10.23;5.63;;;;;;;;;;5025966;28;20200;-68